createdAt,value
2022-09-26T00:00:13.704Z,12.42
2022-09-26T00:05:15.394Z,12.46
2022-09-26T00:10:16.933Z,12.52
2022-09-26T00:15:18.405Z,12.52
2022-09-26T00:20:19.887Z,12.50
2022-09-26T00:25:21.373Z,12.52
2022-09-26T00:30:22.912Z,12.48
2022-09-26T00:35:33.684Z,12.49
2022-09-26T00:40:35.564Z,12.51
2022-09-26T00:45:37.189Z,12.52
2022-09-26T00:50:41.717Z,12.50
2022-09-26T00:55:48.091Z,12.51
2022-09-26T01:00:51.379Z,12.50
2022-09-26T01:05:54.024Z,12.51
2022-09-26T01:10:56.796Z,12.52
2022-09-26T01:15:58.317Z,12.53
2022-09-26T01:21:07.234Z,12.55
2022-09-26T01:26:48.049Z,12.50
2022-09-26T01:32:22.512Z,12.44
2022-09-26T01:37:46.339Z,12.38
2022-09-26T01:43:09.525Z,12.32
2022-09-26T01:48:17.083Z,12.33
2022-09-26T01:53:25.628Z,12.28
2022-09-26T01:58:39.454Z,12.29
2022-09-26T02:03:48.986Z,12.26
2022-09-26T02:09:23.160Z,12.23
2022-09-26T02:14:31.882Z,12.21
2022-09-26T02:19:41.668Z,12.23
2022-09-26T02:24:43.138Z,12.24
2022-09-26T02:29:44.815Z,12.27
2022-09-26T02:34:48.159Z,12.27
2022-09-26T02:39:51.983Z,12.30
2022-09-26T02:45:21.689Z,12.33
2022-09-26T02:50:41.762Z,12.33
2022-09-26T02:56:28.416Z,12.32
2022-09-26T03:01:48.380Z,12.35
2022-09-26T03:06:58.175Z,12.31
2022-09-26T03:12:02.566Z,12.31
2022-09-26T03:17:04.814Z,12.33
2022-09-26T03:22:06.382Z,12.31
2022-09-26T03:27:09.181Z,12.30
2022-09-26T03:32:10.712Z,12.30
2022-09-26T03:37:12.373Z,12.27
2022-09-26T03:42:14.592Z,12.24
2022-09-26T03:47:18.064Z,12.18
2022-09-26T03:52:19.553Z,12.12
2022-09-26T03:57:21.229Z,12.11
2022-09-26T04:02:22.827Z,12.12
2022-09-26T04:07:24.426Z,12.09
2022-09-26T04:12:25.903Z,12.11
2022-09-26T04:17:29.246Z,12.11
2022-09-26T04:22:30.730Z,12.07
2022-09-26T04:27:32.164Z,12.07
2022-09-26T04:32:33.643Z,12.05
2022-09-26T04:37:37.082Z,12.02
2022-09-26T04:42:38.950Z,11.97
2022-09-26T04:47:40.402Z,11.96
2022-09-26T04:52:41.901Z,11.86
2022-09-26T04:57:43.359Z,11.87
2022-09-26T05:02:48.605Z,11.85
2022-09-26T05:07:50.061Z,11.85
2022-09-26T05:12:51.603Z,11.79
2022-09-26T05:18:00.577Z,11.75
2022-09-26T05:23:02.492Z,11.73
2022-09-26T05:28:03.968Z,11.70
2022-09-26T05:33:05.402Z,11.66
2022-09-26T05:38:07.016Z,11.65
2022-09-26T05:43:08.497Z,11.69
2022-09-26T05:48:09.963Z,11.69
2022-09-26T05:53:11.633Z,11.72
2022-09-26T05:58:13.737Z,11.69
2022-09-26T06:03:15.799Z,11.68
2022-09-26T06:08:17.435Z,11.69
2022-09-26T06:13:21.304Z,11.70
2022-09-26T06:18:23.023Z,11.75
2022-09-26T06:23:24.554Z,11.72
2022-09-26T06:28:27.375Z,11.82
2022-09-26T06:33:33.227Z,11.81
2022-09-26T06:38:36.158Z,11.80
2022-09-26T06:43:37.759Z,11.78
2022-09-26T06:48:39.273Z,11.76
2022-09-26T06:53:42.213Z,11.77
2022-09-26T06:58:43.715Z,11.78
2022-09-26T07:03:46.109Z,11.78
2022-09-26T07:09:02.249Z,11.78
2022-09-26T07:14:04.135Z,11.78
2022-09-26T07:19:05.649Z,11.74
2022-09-26T07:24:08.659Z,11.76
2022-09-26T07:29:10.450Z,11.74
2022-09-26T07:34:18.170Z,11.75
2022-09-26T07:39:20.138Z,11.87
2022-09-26T07:50:01.706Z,11.99
2022-09-26T07:55:03.905Z,11.97
2022-09-26T08:00:12.814Z,11.93
2022-09-26T08:05:20.123Z,11.80
2022-09-26T08:10:24.244Z,11.66
2022-09-26T08:15:25.713Z,11.58
2022-09-26T08:20:32.043Z,11.62
2022-09-26T08:25:33.953Z,11.79
2022-09-26T08:30:35.747Z,11.98
2022-09-26T08:35:38.801Z,11.92
2022-09-26T08:40:49.613Z,11.78
2022-09-26T08:46:41.802Z,11.70
2022-09-26T08:51:52.160Z,11.65
2022-09-26T08:57:00.129Z,11.66
2022-09-26T09:02:10.808Z,11.65
2022-09-26T09:07:22.019Z,11.56
2022-09-26T09:12:45.707Z,11.58
2022-09-26T09:18:02.253Z,11.65
2022-09-26T09:23:22.683Z,11.78
2022-09-26T09:28:33.242Z,11.91
2022-09-26T09:33:47.798Z,11.94
2022-09-26T09:38:51.049Z,11.86
2022-09-26T09:43:59.966Z,11.71
2022-09-26T09:49:10.350Z,11.66
2022-09-26T09:54:28.517Z,11.65
2022-09-26T09:59:54.161Z,11.65
2022-09-26T10:05:35.045Z,11.66
2022-09-26T10:11:12.833Z,11.75
2022-09-26T10:16:15.351Z,11.80
2022-09-26T10:21:18.958Z,11.89
2022-09-26T10:26:35.000Z,11.89
2022-09-26T10:31:42.941Z,11.95
2022-09-26T10:36:44.779Z,11.96
2022-09-26T10:41:47.493Z,11.96
2022-09-26T10:46:52.546Z,12.01
2022-09-26T10:52:01.745Z,12.09
2022-09-26T10:57:04.869Z,12.23
2022-09-26T11:02:18.116Z,12.28
2022-09-26T11:07:31.007Z,12.31
2022-09-26T11:12:39.989Z,12.32
2022-09-26T11:17:47.387Z,12.45
2022-09-26T11:23:07.911Z,12.58
2022-09-26T11:28:17.536Z,12.93
2022-09-26T11:33:19.540Z,13.06
2022-09-26T11:38:27.106Z,13.38
2022-09-26T11:43:58.154Z,13.54
2022-09-26T11:49:39.010Z,13.62
2022-09-26T11:55:31.244Z,13.60
2022-09-26T12:00:57.959Z,13.65
2022-09-26T12:06:33.607Z,13.69
2022-09-26T12:11:56.076Z,13.66
2022-09-26T12:17:14.992Z,13.82
2022-09-26T12:22:36.174Z,13.96
2022-09-26T12:28:20.379Z,14.03
2022-09-26T12:33:55.549Z,13.91
2022-09-26T12:39:35.867Z,13.70
2022-09-26T12:44:59.355Z,13.60
2022-09-26T12:50:06.784Z,13.55
2022-09-26T12:55:21.006Z,13.67
2022-09-26T13:00:23.280Z,13.53
2022-09-26T13:05:51.338Z,13.46
2022-09-26T13:11:11.730Z,13.48
2022-09-26T13:16:16.198Z,13.54
2022-09-26T13:21:24.750Z,13.45
2022-09-26T13:26:31.234Z,13.56
2022-09-26T13:31:41.318Z,13.51
2022-09-26T13:36:44.384Z,13.43
2022-09-26T13:41:55.079Z,13.42
2022-09-26T13:47:27.327Z,13.37
2022-09-26T13:52:34.619Z,13.28
2022-09-26T13:57:47.995Z,13.16
2022-09-26T14:03:13.689Z,13.19
2022-09-26T14:08:42.921Z,13.23
2022-09-26T14:13:48.696Z,13.26
2022-09-26T14:19:09.236Z,13.27
2022-09-26T14:24:30.645Z,13.45
2022-09-26T14:29:32.831Z,13.45
2022-09-26T14:34:35.427Z,13.42
2022-09-26T14:39:42.565Z,13.20
2022-09-26T14:45:06.535Z,13.11
2022-09-26T14:50:17.942Z,13.42
2022-09-26T14:55:20.196Z,13.61
2022-09-26T15:00:40.436Z,13.87
2022-09-26T15:05:43.717Z,13.95
2022-09-26T15:10:45.514Z,13.89
2022-09-26T15:16:17.899Z,13.57
2022-09-26T15:21:53.458Z,13.23
2022-09-26T15:26:58.352Z,13.01
2022-09-26T15:32:00.187Z,12.94
2022-09-26T15:37:14.599Z,12.87
2022-09-26T15:42:48.450Z,12.86
2022-09-26T15:47:49.975Z,12.75
2022-09-26T15:52:57.229Z,12.71
2022-09-26T15:58:01.883Z,12.71
2022-09-26T16:03:47.540Z,12.73
2022-09-26T16:09:00.746Z,12.67
2022-09-26T16:14:02.456Z,12.65
2022-09-26T16:19:04.917Z,12.65
2022-09-26T16:24:34.084Z,12.67
2022-09-26T16:29:36.023Z,12.68
2022-09-26T16:34:37.542Z,12.68
2022-09-26T16:39:39.146Z,12.66
2022-09-26T16:44:41.992Z,12.64
2022-09-26T16:49:48.274Z,12.60
2022-09-26T16:54:51.383Z,12.57
2022-09-26T16:59:53.411Z,12.51
2022-09-26T17:04:58.326Z,12.45
2022-09-26T17:09:59.779Z,12.39
2022-09-26T17:15:01.277Z,12.32
2022-09-26T17:20:03.301Z,12.25
2022-09-26T17:25:05.205Z,12.15
2022-09-26T17:30:18.797Z,12.17
2022-09-26T17:35:26.502Z,12.22
2022-09-26T17:40:32.828Z,12.26
2022-09-26T17:45:40.681Z,12.20
2022-09-26T17:50:42.863Z,12.07
2022-09-26T17:55:44.345Z,12.01
2022-09-26T18:00:49.768Z,11.92
2022-09-26T18:05:52.314Z,11.87
2022-09-26T18:11:00.034Z,11.79
2022-09-26T18:16:01.870Z,11.73
2022-09-26T18:21:04.037Z,11.75
2022-09-26T18:26:08.793Z,11.68
2022-09-26T18:31:11.286Z,11.65
2022-09-26T18:36:12.775Z,11.64
2022-09-26T18:41:16.878Z,11.65
2022-09-26T18:46:18.887Z,11.56
2022-09-26T18:51:20.553Z,11.48
2022-09-26T18:56:40.976Z,11.38
2022-09-26T19:01:43.441Z,11.25
2022-09-26T19:06:49.304Z,11.17
2022-09-26T19:11:50.786Z,11.13
2022-09-26T19:16:52.266Z,11.09
2022-09-26T19:21:58.365Z,11.11
2022-09-26T19:27:06.756Z,11.07
2022-09-26T19:32:23.448Z,11.06
2022-09-26T19:37:24.978Z,11.06
2022-09-26T19:42:26.880Z,11.05
2022-09-26T19:47:32.118Z,11.01
2022-09-26T19:52:33.596Z,11.00
2022-09-26T19:57:35.086Z,10.98
2022-09-26T20:02:36.817Z,10.91
2022-09-26T20:07:38.315Z,10.87
2022-09-26T20:12:39.853Z,10.82
2022-09-26T20:17:44.540Z,10.75
2022-09-26T20:22:46.517Z,10.72
2022-09-26T20:27:47.986Z,10.71
2022-09-26T20:32:49.444Z,10.69
2022-09-26T20:37:52.250Z,10.69
2022-09-26T20:43:03.901Z,10.72
2022-09-26T20:48:08.607Z,10.71
2022-09-26T20:53:16.981Z,10.71
2022-09-26T20:58:18.730Z,10.72
2022-09-26T21:03:25.119Z,10.69
2022-09-26T21:08:28.581Z,10.65
2022-09-26T21:13:30.120Z,10.65
2022-09-26T21:18:31.820Z,10.62
2022-09-26T21:23:40.087Z,10.64
2022-09-26T21:28:41.551Z,10.63
2022-09-26T21:33:43.017Z,10.60
2022-09-26T21:38:44.537Z,10.59
2022-09-26T21:43:52.738Z,10.58
2022-09-26T21:48:55.516Z,10.63
2022-09-26T21:54:03.993Z,10.66
2022-09-26T21:59:06.893Z,10.65
2022-09-26T22:04:08.759Z,10.56
2022-09-26T22:09:10.351Z,10.49
2022-09-26T22:14:12.044Z,10.40
2022-09-26T22:19:14.871Z,10.37
2022-09-26T22:24:16.782Z,10.39
2022-09-26T22:29:18.224Z,10.44
2022-09-26T22:34:23.085Z,10.45
2022-09-26T22:39:24.558Z,10.40
2022-09-26T22:44:26.005Z,10.27
2022-09-26T22:49:27.551Z,10.18
2022-09-26T22:54:29.029Z,10.13
2022-09-26T22:59:30.481Z,10.13
2022-09-26T23:04:47.062Z,10.10
2022-09-26T23:09:48.591Z,10.13
2022-09-26T23:14:50.096Z,10.15
2022-09-26T23:19:52.268Z,10.12
2022-09-26T23:24:53.749Z,10.14
2022-09-26T23:29:55.226Z,10.23
2022-09-26T23:34:56.704Z,10.21
2022-09-26T23:39:58.165Z,10.20
2022-09-26T23:44:59.930Z,10.22
2022-09-26T23:50:01.434Z,10.19
2022-09-26T23:55:02.992Z,10.18
